sensor_id;sensor_type;location;lat;lon;timestamp;P1;durP1;ratioP1;P2;durP2;ratioP2
59016;SDS011;44800;55.600;38.134;2022-09-09T00:02:14;14.23;;;5.70;;
59016;SDS011;44800;55.600;38.134;2022-09-09T00:04:48;6.43;;;3.97;;
59016;SDS011;44800;55.600;38.134;2022-09-09T00:07:24;9.52;;;3.90;;
59016;SDS011;44800;55.600;38.134;2022-09-09T00:09:58;9.75;;;3.55;;
59016;SDS011;44800;55.600;38.134;2022-09-09T00:12:33;7.50;;;3.30;;
59016;SDS011;44800;55.600;38.134;2022-09-09T00:15:05;7.07;;;2.97;;
59016;SDS011;44800;55.600;38.134;2022-09-09T00:17:40;14.32;;;3.95;;
59016;SDS011;44800;55.600;38.134;2022-09-09T00:20:12;8.35;;;3.47;;
59016;SDS011;44800;55.600;38.134;2022-09-09T00:22:43;10.18;;;3.70;;
59016;SDS011;44800;55.600;38.134;2022-09-09T00:25:16;7.88;;;3.25;;
59016;SDS011;44800;55.600;38.134;2022-09-09T00:27:48;8.43;;;3.90;;
59016;SDS011;44800;55.600;38.134;2022-09-09T00:30:17;8.63;;;3.38;;
59016;SDS011;44800;55.600;38.134;2022-09-09T00:32:49;6.88;;;3.45;;
59016;SDS011;44800;55.600;38.134;2022-09-09T00:35:21;6.57;;;3.30;;
59016;SDS011;44800;55.600;38.134;2022-09-09T00:37:53;9.20;;;4.32;;
59016;SDS011;44800;55.600;38.134;2022-09-09T00:40:24;9.73;;;3.45;;
59016;SDS011;44800;55.600;38.134;2022-09-09T00:43:00;4.40;;;2.97;;
59016;SDS011;44800;55.600;38.134;2022-09-09T00:45:52;6.90;;;3.08;;
59016;SDS011;44800;55.600;38.134;2022-09-09T00:48:42;5.88;;;3.65;;
59016;SDS011;44800;55.600;38.134;2022-09-09T00:51:21;6.82;;;2.92;;
59016;SDS011;44800;55.600;38.134;2022-09-09T00:54:02;11.32;;;4.20;;
59016;SDS011;44800;55.600;38.134;2022-09-09T00:56:45;9.77;;;3.35;;
59016;SDS011;44800;55.600;38.134;2022-09-09T00:59:16;8.85;;;3.58;;
59016;SDS011;44800;55.600;38.134;2022-09-09T01:01:54;7.75;;;3.47;;
59016;SDS011;44800;55.600;38.134;2022-09-09T01:04:24;8.77;;;3.78;;
59016;SDS011;44800;55.600;38.134;2022-09-09T01:06:59;8.00;;;3.38;;
59016;SDS011;44800;55.600;38.134;2022-09-09T01:09:33;5.82;;;3.08;;
59016;SDS011;44800;55.600;38.134;2022-09-09T01:12:11;10.48;;;3.75;;
59016;SDS011;44800;55.600;38.134;2022-09-09T01:14:43;13.20;;;4.47;;
59016;SDS011;44800;55.600;38.134;2022-09-09T01:17:16;9.10;;;3.45;;
59016;SDS011;44800;55.600;38.134;2022-09-09T01:22:35;9.88;;;3.53;;
59016;SDS011;44800;55.600;38.134;2022-09-09T01:25:26;10.30;;;3.63;;
59016;SDS011;44800;55.600;38.134;2022-09-09T01:27:58;8.95;;;3.88;;
59016;SDS011;44800;55.600;38.134;2022-09-09T01:30:28;10.10;;;3.50;;
59016;SDS011;44800;55.600;38.134;2022-09-09T01:32:57;8.57;;;3.20;;
59016;SDS011;44800;55.600;38.134;2022-09-09T01:35:33;6.53;;;2.90;;
59016;SDS011;44800;55.600;38.134;2022-09-09T01:38:06;4.75;;;3.42;;
59016;SDS011;44800;55.600;38.134;2022-09-09T01:40:34;5.47;;;2.95;;
59016;SDS011;44800;55.600;38.134;2022-09-09T01:43:03;7.90;;;3.00;;
59016;SDS011;44800;55.600;38.134;2022-09-09T01:45:33;4.95;;;2.90;;
59016;SDS011;44800;55.600;38.134;2022-09-09T01:48:02;5.82;;;3.05;;
59016;SDS011;44800;55.600;38.134;2022-09-09T01:50:30;7.18;;;3.47;;
59016;SDS011;44800;55.600;38.134;2022-09-09T01:52:59;7.45;;;2.97;;
59016;SDS011;44800;55.600;38.134;2022-09-09T01:55:29;9.63;;;3.80;;
59016;SDS011;44800;55.600;38.134;2022-09-09T01:58:08;7.40;;;3.55;;
59016;SDS011;44800;55.600;38.134;2022-09-09T02:00:42;10.35;;;4.13;;
59016;SDS011;44800;55.600;38.134;2022-09-09T02:03:14;6.53;;;3.92;;
59016;SDS011;44800;55.600;38.134;2022-09-09T02:05:49;9.75;;;3.70;;
59016;SDS011;44800;55.600;38.134;2022-09-09T02:08:23;9.15;;;4.20;;
59016;SDS011;44800;55.600;38.134;2022-09-09T02:10:54;9.13;;;3.92;;
59016;SDS011;44800;55.600;38.134;2022-09-09T02:13:25;8.93;;;3.97;;
59016;SDS011;44800;55.600;38.134;2022-09-09T02:15:55;13.65;;;3.63;;
59016;SDS011;44800;55.600;38.134;2022-09-09T02:18:26;7.65;;;3.97;;
59016;SDS011;44800;55.600;38.134;2022-09-09T02:20:56;8.98;;;3.65;;
59016;SDS011;44800;55.600;38.134;2022-09-09T02:23:26;8.18;;;3.42;;
59016;SDS011;44800;55.600;38.134;2022-09-09T02:25:55;12.40;;;3.67;;
59016;SDS011;44800;55.600;38.134;2022-09-09T02:28:35;5.55;;;3.05;;
59016;SDS011;44800;55.600;38.134;2022-09-09T02:31:05;7.32;;;3.30;;
59016;SDS011;44800;55.600;38.134;2022-09-09T02:33:33;6.90;;;3.10;;
59016;SDS011;44800;55.600;38.134;2022-09-09T02:36:05;7.95;;;3.45;;
59016;SDS011;44800;55.600;38.134;2022-09-09T02:38:36;7.93;;;3.20;;
59016;SDS011;44800;55.600;38.134;2022-09-09T02:41:06;7.25;;;3.42;;
59016;SDS011;44800;55.600;38.134;2022-09-09T02:43:36;6.95;;;3.45;;
59016;SDS011;44800;55.600;38.134;2022-09-09T02:46:18;8.73;;;3.40;;
59016;SDS011;44800;55.600;38.134;2022-09-09T02:48:57;6.63;;;3.75;;
59016;SDS011;44800;55.600;38.134;2022-09-09T02:51:30;8.63;;;3.38;;
59016;SDS011;44800;55.600;38.134;2022-09-09T02:54:05;6.43;;;3.03;;
59016;SDS011;44800;55.600;38.134;2022-09-09T02:56:40;8.70;;;3.85;;
59016;SDS011;44800;55.600;38.134;2022-09-09T02:59:13;17.33;;;3.67;;
59016;SDS011;44800;55.600;38.134;2022-09-09T03:01:41;8.82;;;3.60;;
59016;SDS011;44800;55.600;38.134;2022-09-09T03:04:10;10.43;;;4.03;;
59016;SDS011;44800;55.600;38.134;2022-09-09T03:06:38;8.27;;;3.20;;
59016;SDS011;44800;55.600;38.134;2022-09-09T03:09:06;11.02;;;3.58;;
59016;SDS011;44800;55.600;38.134;2022-09-09T03:11:37;7.68;;;3.17;;
59016;SDS011;44800;55.600;38.134;2022-09-09T03:14:05;8.52;;;3.35;;
59016;SDS011;44800;55.600;38.134;2022-09-09T03:16:36;9.10;;;3.47;;
59016;SDS011;44800;55.600;38.134;2022-09-09T03:19:04;7.43;;;3.03;;
59016;SDS011;44800;55.600;38.134;2022-09-09T03:21:32;6.97;;;3.47;;
59016;SDS011;44800;55.600;38.134;2022-09-09T03:24:03;7.68;;;3.10;;
59016;SDS011;44800;55.600;38.134;2022-09-09T03:26:33;7.30;;;3.47;;
59016;SDS011;44800;55.600;38.134;2022-09-09T03:29:01;7.40;;;3.35;;
59016;SDS011;44800;55.600;38.134;2022-09-09T03:31:29;11.35;;;3.45;;
59016;SDS011;44800;55.600;38.134;2022-09-09T03:33:59;11.30;;;4.40;;
59016;SDS011;44800;55.600;38.134;2022-09-09T03:36:27;10.82;;;3.95;;
59016;SDS011;44800;55.600;38.134;2022-09-09T03:38:57;8.18;;;2.83;;
59016;SDS011;44800;55.600;38.134;2022-09-09T03:41:26;8.95;;;2.95;;
59016;SDS011;44800;55.600;38.134;2022-09-09T03:43:55;3.60;;;2.33;;
59016;SDS011;44800;55.600;38.134;2022-09-09T03:46:24;5.15;;;2.75;;
59016;SDS011;44800;55.600;38.134;2022-09-09T03:48:54;6.35;;;3.15;;
59016;SDS011;44800;55.600;38.134;2022-09-09T03:51:25;11.38;;;4.13;;
59016;SDS011;44800;55.600;38.134;2022-09-09T03:53:53;11.68;;;3.28;;
59016;SDS011;44800;55.600;38.134;2022-09-09T03:56:24;6.50;;;3.13;;
59016;SDS011;44800;55.600;38.134;2022-09-09T03:58:55;7.20;;;3.10;;
59016;SDS011;44800;55.600;38.134;2022-09-09T04:01:23;9.13;;;4.20;;
59016;SDS011;44800;55.600;38.134;2022-09-09T04:03:52;18.80;;;6.22;;
59016;SDS011;44800;55.600;38.134;2022-09-09T04:06:21;6.75;;;2.90;;
59016;SDS011;44800;55.600;38.134;2022-09-09T04:08:51;5.85;;;3.17;;
59016;SDS011;44800;55.600;38.134;2022-09-09T04:11:19;4.95;;;3.35;;
59016;SDS011;44800;55.600;38.134;2022-09-09T04:13:48;7.63;;;3.30;;
59016;SDS011;44800;55.600;38.134;2022-09-09T04:16:16;8.27;;;2.97;;
59016;SDS011;44800;55.600;38.134;2022-09-09T04:18:45;10.57;;;2.78;;
59016;SDS011;44800;55.600;38.134;2022-09-09T04:21:13;11.07;;;4.60;;
59016;SDS011;44800;55.600;38.134;2022-09-09T04:23:41;14.25;;;4.35;;
59016;SDS011;44800;55.600;38.134;2022-09-09T04:26:11;6.20;;;2.90;;
59016;SDS011;44800;55.600;38.134;2022-09-09T04:28:39;12.35;;;4.15;;
59016;SDS011;44800;55.600;38.134;2022-09-09T04:31:08;9.48;;;3.63;;
59016;SDS011;44800;55.600;38.134;2022-09-09T04:33:38;11.27;;;3.47;;
59016;SDS011;44800;55.600;38.134;2022-09-09T04:36:06;26.40;;;4.28;;
59016;SDS011;44800;55.600;38.134;2022-09-09T04:38:35;3.78;;;2.33;;
59016;SDS011;44800;55.600;38.134;2022-09-09T04:41:04;12.50;;;3.53;;
59016;SDS011;44800;55.600;38.134;2022-09-09T04:43:34;5.53;;;3.20;;
59016;SDS011;44800;55.600;38.134;2022-09-09T04:46:03;6.95;;;2.67;;
59016;SDS011;44800;55.600;38.134;2022-09-09T04:48:32;7.32;;;2.97;;
59016;SDS011;44800;55.600;38.134;2022-09-09T04:51:01;6.85;;;3.05;;
59016;SDS011;44800;55.600;38.134;2022-09-09T04:53:31;5.43;;;2.50;;
59016;SDS011;44800;55.600;38.134;2022-09-09T04:56:01;5.97;;;2.78;;
59016;SDS011;44800;55.600;38.134;2022-09-09T04:58:30;7.55;;;2.63;;
59016;SDS011;44800;55.600;38.134;2022-09-09T05:01:06;14.02;;;5.25;;
59016;SDS011;44800;55.600;38.134;2022-09-09T05:03:35;4.85;;;2.35;;
59016;SDS011;44800;55.600;38.134;2022-09-09T05:06:05;8.77;;;2.60;;
59016;SDS011;44800;55.600;38.134;2022-09-09T05:08:35;9.18;;;2.85;;
59016;SDS011;44800;55.600;38.134;2022-09-09T05:11:11;4.20;;;2.47;;
59016;SDS011;44800;55.600;38.134;2022-09-09T05:13:41;8.10;;;3.30;;
59016;SDS011;44800;55.600;38.134;2022-09-09T05:16:12;7.47;;;3.35;;
59016;SDS011;44800;55.600;38.134;2022-09-09T05:18:41;8.00;;;3.65;;
59016;SDS011;44800;55.600;38.134;2022-09-09T05:21:11;8.45;;;2.88;;
59016;SDS011;44800;55.600;38.134;2022-09-09T05:23:43;7.20;;;3.22;;
59016;SDS011;44800;55.600;38.134;2022-09-09T05:26:13;8.55;;;4.07;;
59016;SDS011;44800;55.600;38.134;2022-09-09T05:28:43;4.07;;;2.17;;
59016;SDS011;44800;55.600;38.134;2022-09-09T05:31:13;12.20;;;3.13;;
59016;SDS011;44800;55.600;38.134;2022-09-09T05:33:43;5.50;;;2.80;;
59016;SDS011;44800;55.600;38.134;2022-09-09T05:36:14;8.88;;;2.90;;
59016;SDS011;44800;55.600;38.134;2022-09-09T05:38:43;8.45;;;2.97;;
59016;SDS011;44800;55.600;38.134;2022-09-09T05:41:12;16.42;;;3.83;;
59016;SDS011;44800;55.600;38.134;2022-09-09T05:43:42;6.10;;;2.63;;
59016;SDS011;44800;55.600;38.134;2022-09-09T05:46:15;11.48;;;3.45;;
59016;SDS011;44800;55.600;38.134;2022-09-09T05:48:45;7.05;;;2.70;;
59016;SDS011;44800;55.600;38.134;2022-09-09T05:51:15;4.85;;;2.38;;
59016;SDS011;44800;55.600;38.134;2022-09-09T05:53:45;4.57;;;2.28;;
59016;SDS011;44800;55.600;38.134;2022-09-09T05:56:14;7.03;;;2.53;;
59016;SDS011;44800;55.600;38.134;2022-09-09T05:58:44;6.95;;;2.35;;
59016;SDS011;44800;55.600;38.134;2022-09-09T06:01:15;14.25;;;3.03;;
59016;SDS011;44800;55.600;38.134;2022-09-09T06:03:45;10.23;;;3.08;;
59016;SDS011;44800;55.600;38.134;2022-09-09T06:06:14;6.70;;;3.15;;
59016;SDS011;44800;55.600;38.134;2022-09-09T06:08:44;6.95;;;2.80;;
59016;SDS011;44800;55.600;38.134;2022-09-09T06:11:13;6.45;;;2.78;;
59016;SDS011;44800;55.600;38.134;2022-09-09T06:13:43;9.57;;;2.92;;
59016;SDS011;44800;55.600;38.134;2022-09-09T06:16:13;6.72;;;3.05;;
59016;SDS011;44800;55.600;38.134;2022-09-09T06:18:43;7.43;;;2.97;;
59016;SDS011;44800;55.600;38.134;2022-09-09T06:21:14;7.05;;;2.38;;
59016;SDS011;44800;55.600;38.134;2022-09-09T06:23:43;3.08;;;1.98;;
59016;SDS011;44800;55.600;38.134;2022-09-09T06:26:13;7.85;;;2.28;;
59016;SDS011;44800;55.600;38.134;2022-09-09T06:28:44;6.40;;;2.90;;
59016;SDS011;44800;55.600;38.134;2022-09-09T06:31:12;8.13;;;2.97;;
59016;SDS011;44800;55.600;38.134;2022-09-09T06:33:53;5.32;;;2.60;;
59016;SDS011;44800;55.600;38.134;2022-09-09T06:36:22;5.38;;;2.72;;
59016;SDS011;44800;55.600;38.134;2022-09-09T06:38:53;5.68;;;2.15;;
59016;SDS011;44800;55.600;38.134;2022-09-09T06:41:25;3.92;;;2.03;;
59016;SDS011;44800;55.600;38.134;2022-09-09T06:43:57;6.13;;;2.10;;
59016;SDS011;44800;55.600;38.134;2022-09-09T06:46:28;6.43;;;2.03;;
59016;SDS011;44800;55.600;38.134;2022-09-09T06:48:57;4.65;;;1.58;;
59016;SDS011;44800;55.600;38.134;2022-09-09T06:51:26;4.00;;;1.55;;
59016;SDS011;44800;55.600;38.134;2022-09-09T06:53:59;4.90;;;1.70;;
59016;SDS011;44800;55.600;38.134;2022-09-09T06:56:29;4.28;;;1.40;;
59016;SDS011;44800;55.600;38.134;2022-09-09T06:58:58;4.55;;;1.58;;
59016;SDS011;44800;55.600;38.134;2022-09-09T07:01:29;4.93;;;1.25;;
59016;SDS011;44800;55.600;38.134;2022-09-09T07:03:59;3.10;;;1.88;;
59016;SDS011;44800;55.600;38.134;2022-09-09T07:06:28;3.25;;;1.60;;
59016;SDS011;44800;55.600;38.134;2022-09-09T07:08:58;3.10;;;1.33;;
59016;SDS011;44800;55.600;38.134;2022-09-09T07:11:27;3.33;;;1.08;;
59016;SDS011;44800;55.600;38.134;2022-09-09T07:13:57;4.72;;;1.48;;
59016;SDS011;44800;55.600;38.134;2022-09-09T07:16:26;3.85;;;1.77;;
59016;SDS011;44800;55.600;38.134;2022-09-09T07:18:58;3.78;;;1.20;;
59016;SDS011;44800;55.600;38.134;2022-09-09T07:21:27;2.20;;;1.33;;
59016;SDS011;44800;55.600;38.134;2022-09-09T07:23:56;3.60;;;1.40;;
59016;SDS011;44800;55.600;38.134;2022-09-09T07:26:25;7.55;;;1.67;;
59016;SDS011;44800;55.600;38.134;2022-09-09T07:28:54;4.88;;;1.52;;
59016;SDS011;44800;55.600;38.134;2022-09-09T07:31:24;2.65;;;1.10;;
59016;SDS011;44800;55.600;38.134;2022-09-09T07:33:54;4.07;;;1.67;;
59016;SDS011;44800;55.600;38.134;2022-09-09T07:36:23;3.17;;;1.15;;
59016;SDS011;44800;55.600;38.134;2022-09-09T07:38:59;3.78;;;1.85;;
59016;SDS011;44800;55.600;38.134;2022-09-09T07:41:28;2.17;;;1.40;;
59016;SDS011;44800;55.600;38.134;2022-09-09T07:43:59;3.92;;;1.63;;
59016;SDS011;44800;55.600;38.134;2022-09-09T07:46:27;2.88;;;1.15;;
59016;SDS011;44800;55.600;38.134;2022-09-09T07:48:57;5.10;;;1.33;;
59016;SDS011;44800;55.600;38.134;2022-09-09T07:51:26;3.35;;;1.27;;
59016;SDS011;44800;55.600;38.134;2022-09-09T07:53:56;5.07;;;2.33;;
59016;SDS011;44800;55.600;38.134;2022-09-09T07:56:26;2.38;;;1.48;;
59016;SDS011;44800;55.600;38.134;2022-09-09T07:58:55;2.20;;;1.27;;
59016;SDS011;44800;55.600;38.134;2022-09-09T08:01:28;2.65;;;1.20;;
59016;SDS011;44800;55.600;38.134;2022-09-09T08:04:00;2.17;;;1.40;;
59016;SDS011;44800;55.600;38.134;2022-09-09T08:06:32;6.70;;;1.48;;
59016;SDS011;44800;55.600;38.134;2022-09-09T08:09:02;1.77;;;1.30;;
59016;SDS011;44800;55.600;38.134;2022-09-09T08:11:30;3.92;;;1.65;;
59016;SDS011;44800;55.600;38.134;2022-09-09T08:14:04;1.60;;;1.08;;
59016;SDS011;44800;55.600;38.134;2022-09-09T08:16:34;2.33;;;1.17;;
59016;SDS011;44800;55.600;38.134;2022-09-09T08:19:06;4.20;;;1.30;;
59016;SDS011;44800;55.600;38.134;2022-09-09T08:21:35;3.90;;;1.75;;
59016;SDS011;44800;55.600;38.134;2022-09-09T08:24:04;8.95;;;1.70;;
59016;SDS011;44800;55.600;38.134;2022-09-09T08:26:34;1.85;;;1.30;;
59016;SDS011;44800;55.600;38.134;2022-09-09T08:29:04;5.10;;;1.52;;
59016;SDS011;44800;55.600;38.134;2022-09-09T08:31:34;1.92;;;1.48;;
59016;SDS011;44800;55.600;38.134;2022-09-09T08:34:06;4.20;;;1.20;;
59016;SDS011;44800;55.600;38.134;2022-09-09T08:36:36;2.38;;;1.30;;
59016;SDS011;44800;55.600;38.134;2022-09-09T08:39:05;10.68;;;2.60;;
59016;SDS011;44800;55.600;38.134;2022-09-09T08:41:49;1.92;;;1.27;;
59016;SDS011;44800;55.600;38.134;2022-09-09T08:44:34;1.58;;;1.27;;
59016;SDS011;44800;55.600;38.134;2022-09-09T08:47:17;4.40;;;1.40;;
59016;SDS011;44800;55.600;38.134;2022-09-09T08:50:04;3.40;;;1.48;;
59016;SDS011;44800;55.600;38.134;2022-09-09T08:52:41;1.50;;;1.40;;
59016;SDS011;44800;55.600;38.134;2022-09-09T08:55:18;3.78;;;1.67;;
59016;SDS011;44800;55.600;38.134;2022-09-09T08:57:51;5.15;;;1.48;;
59016;SDS011;44800;55.600;38.134;2022-09-09T09:00:20;3.53;;;1.98;;
59016;SDS011;44800;55.600;38.134;2022-09-09T09:02:53;4.43;;;1.40;;
59016;SDS011;44800;55.600;38.134;2022-09-09T09:05:28;3.05;;;1.75;;
59016;SDS011;44800;55.600;38.134;2022-09-09T09:08:03;3.85;;;1.80;;
59016;SDS011;44800;55.600;38.134;2022-09-09T09:10:39;1.95;;;1.42;;
59016;SDS011;44800;55.600;38.134;2022-09-09T09:13:15;5.10;;;1.88;;
59016;SDS011;44800;55.600;38.134;2022-09-09T09:15:48;2.20;;;1.27;;
59016;SDS011;44800;55.600;38.134;2022-09-09T09:20:54;2.03;;;1.63;;
59016;SDS011;44800;55.600;38.134;2022-09-09T09:23:34;1.58;;;0.98;;
59016;SDS011;44800;55.600;38.134;2022-09-09T09:26:06;2.33;;;1.88;;
59016;SDS011;44800;55.600;38.134;2022-09-09T09:28:37;6.05;;;1.25;;
59016;SDS011;44800;55.600;38.134;2022-09-09T09:31:06;4.00;;;1.65;;
59016;SDS011;44800;55.600;38.134;2022-09-09T09:33:36;3.75;;;1.58;;
59016;SDS011;44800;55.600;38.134;2022-09-09T09:36:14;1.98;;;1.10;;
59016;SDS011;44800;55.600;38.134;2022-09-09T09:38:53;2.55;;;1.38;;
59016;SDS011;44800;55.600;38.134;2022-09-09T09:41:43;3.10;;;1.38;;
59016;SDS011;44800;55.600;38.134;2022-09-09T09:44:21;2.58;;;1.40;;
59016;SDS011;44800;55.600;38.134;2022-09-09T09:46:51;3.97;;;1.63;;
59016;SDS011;44800;55.600;38.134;2022-09-09T09:49:19;1.58;;;1.10;;
59016;SDS011;44800;55.600;38.134;2022-09-09T09:51:49;2.72;;;1.38;;
59016;SDS011;44800;55.600;38.134;2022-09-09T09:54:21;1.80;;;1.48;;
59016;SDS011;44800;55.600;38.134;2022-09-09T09:56:54;1.30;;;1.10;;
59016;SDS011;44800;55.600;38.134;2022-09-09T09:59:23;1.40;;;1.08;;
59016;SDS011;44800;55.600;38.134;2022-09-09T10:02:17;2.35;;;1.55;;
59016;SDS011;44800;55.600;38.134;2022-09-09T10:04:59;2.80;;;1.30;;
59016;SDS011;44800;55.600;38.134;2022-09-09T10:07:30;8.25;;;1.85;;
59016;SDS011;44800;55.600;38.134;2022-09-09T10:10:00;3.88;;;1.70;;
59016;SDS011;44800;55.600;38.134;2022-09-09T10:12:31;3.25;;;1.70;;
59016;SDS011;44800;55.600;38.134;2022-09-09T10:15:06;5.53;;;2.15;;
59016;SDS011;44800;55.600;38.134;2022-09-09T10:17:53;5.25;;;2.45;;
59016;SDS011;44800;55.600;38.134;2022-09-09T10:20:29;4.78;;;1.90;;
59016;SDS011;44800;55.600;38.134;2022-09-09T10:23:06;3.72;;;2.20;;
59016;SDS011;44800;55.600;38.134;2022-09-09T10:25:43;8.35;;;2.30;;
59016;SDS011;44800;55.600;38.134;2022-09-09T10:31:27;4.72;;;2.03;;
59016;SDS011;44800;55.600;38.134;2022-09-09T10:34:01;10.30;;;2.50;;
59016;SDS011;44800;55.600;38.134;2022-09-09T10:36:34;5.53;;;2.45;;
59016;SDS011;44800;55.600;38.134;2022-09-09T10:39:11;3.90;;;2.10;;
59016;SDS011;44800;55.600;38.134;2022-09-09T10:41:45;3.35;;;1.90;;
59016;SDS011;44800;55.600;38.134;2022-09-09T10:44:22;3.78;;;1.73;;
59016;SDS011;44800;55.600;38.134;2022-09-09T10:46:59;3.00;;;2.28;;
59016;SDS011;44800;55.600;38.134;2022-09-09T10:49:45;2.67;;;1.95;;
59016;SDS011;44800;55.600;38.134;2022-09-09T10:52:40;3.03;;;1.70;;
59016;SDS011;44800;55.600;38.134;2022-09-09T10:55:14;4.10;;;1.70;;
59016;SDS011;44800;55.600;38.134;2022-09-09T10:57:45;2.80;;;1.55;;
59016;SDS011;44800;55.600;38.134;2022-09-09T11:00:15;3.28;;;2.28;;
59016;SDS011;44800;55.600;38.134;2022-09-09T11:02:46;3.20;;;1.77;;
59016;SDS011;44800;55.600;38.134;2022-09-09T11:05:18;5.05;;;1.52;;
59016;SDS011;44800;55.600;38.134;2022-09-09T11:07:50;5.72;;;2.25;;
59016;SDS011;44800;55.600;38.134;2022-09-09T11:10:24;12.52;;;2.20;;
59016;SDS011;44800;55.600;38.134;2022-09-09T11:12:57;2.85;;;1.70;;
59016;SDS011;44800;55.600;38.134;2022-09-09T11:15:30;2.50;;;1.45;;
59016;SDS011;44800;55.600;38.134;2022-09-09T11:18:04;3.35;;;2.00;;
59016;SDS011;44800;55.600;38.134;2022-09-09T11:20:32;2.65;;;1.63;;
59016;SDS011;44800;55.600;38.134;2022-09-09T11:23:02;2.67;;;1.70;;
59016;SDS011;44800;55.600;38.134;2022-09-09T11:25:34;3.88;;;2.10;;
59016;SDS011;44800;55.600;38.134;2022-09-09T11:28:08;4.97;;;1.33;;
59016;SDS011;44800;55.600;38.134;2022-09-09T11:30:46;3.53;;;1.48;;
59016;SDS011;44800;55.600;38.134;2022-09-09T11:33:38;2.70;;;1.60;;
59016;SDS011;44800;55.600;38.134;2022-09-09T11:36:36;4.43;;;1.90;;
59016;SDS011;44800;55.600;38.134;2022-09-09T11:39:21;6.60;;;2.30;;
59016;SDS011;44800;55.600;38.134;2022-09-09T11:42:18;3.45;;;1.73;;
59016;SDS011;44800;55.600;38.134;2022-09-09T11:44:48;3.63;;;1.52;;
59016;SDS011;44800;55.600;38.134;2022-09-09T11:47:22;9.68;;;1.83;;
59016;SDS011;44800;55.600;38.134;2022-09-09T11:50:06;2.85;;;1.48;;
59016;SDS011;44800;55.600;38.134;2022-09-09T11:52:36;2.97;;;1.60;;
59016;SDS011;44800;55.600;38.134;2022-09-09T11:55:10;8.18;;;1.88;;
59016;SDS011;44800;55.600;38.134;2022-09-09T11:57:40;3.13;;;1.70;;
59016;SDS011;44800;55.600;38.134;2022-09-09T12:03:00;3.88;;;1.98;;
59016;SDS011;44800;55.600;38.134;2022-09-09T12:05:35;6.25;;;2.03;;
59016;SDS011;44800;55.600;38.134;2022-09-09T12:08:05;4.30;;;1.73;;
59016;SDS011;44800;55.600;38.134;2022-09-09T12:10:34;2.30;;;1.90;;
59016;SDS011;44800;55.600;38.134;2022-09-09T12:13:17;4.20;;;2.03;;
59016;SDS011;44800;55.600;38.134;2022-09-09T12:15:47;3.67;;;2.20;;
59016;SDS011;44800;55.600;38.134;2022-09-09T12:18:21;2.28;;;1.40;;
59016;SDS011;44800;55.600;38.134;2022-09-09T12:20:53;6.25;;;1.73;;
59016;SDS011;44800;55.600;38.134;2022-09-09T12:26:02;1.98;;;1.73;;
59016;SDS011;44800;55.600;38.134;2022-09-09T12:28:41;2.45;;;1.63;;
59016;SDS011;44800;55.600;38.134;2022-09-09T12:31:21;3.10;;;1.73;;
59016;SDS011;44800;55.600;38.134;2022-09-09T12:33:52;2.90;;;1.27;;
59016;SDS011;44800;55.600;38.134;2022-09-09T12:36:21;2.60;;;1.10;;
59016;SDS011;44800;55.600;38.134;2022-09-09T12:38:51;2.88;;;1.00;;
59016;SDS011;44800;55.600;38.134;2022-09-09T12:41:21;1.20;;;1.10;;
59016;SDS011;44800;55.600;38.134;2022-09-09T12:44:02;4.38;;;1.40;;
59016;SDS011;44800;55.600;38.134;2022-09-09T12:46:33;5.13;;;1.80;;
59016;SDS011;44800;55.600;38.134;2022-09-09T12:49:03;2.67;;;1.65;;
59016;SDS011;44800;55.600;38.134;2022-09-09T12:51:33;4.68;;;1.27;;
59016;SDS011;44800;55.600;38.134;2022-09-09T12:54:01;13.00;;;3.13;;
59016;SDS011;44800;55.600;38.134;2022-09-09T12:56:31;5.72;;;2.58;;
59016;SDS011;44800;55.600;38.134;2022-09-09T12:59:03;6.85;;;2.35;;
59016;SDS011;44800;55.600;38.134;2022-09-09T13:01:32;7.03;;;3.22;;
59016;SDS011;44800;55.600;38.134;2022-09-09T13:04:01;11.43;;;3.63;;
59016;SDS011;44800;55.600;38.134;2022-09-09T13:06:30;8.48;;;3.05;;
59016;SDS011;44800;55.600;38.134;2022-09-09T13:09:00;10.13;;;3.88;;
59016;SDS011;44800;55.600;38.134;2022-09-09T13:11:29;5.38;;;3.10;;
59016;SDS011;44800;55.600;38.134;2022-09-09T13:13:59;6.40;;;2.70;;
59016;SDS011;44800;55.600;38.134;2022-09-09T13:16:29;4.88;;;3.08;;
59016;SDS011;44800;55.600;38.134;2022-09-09T13:19:06;2.83;;;1.60;;
59016;SDS011;44800;55.600;38.134;2022-09-09T13:21:36;3.85;;;1.70;;
59016;SDS011;44800;55.600;38.134;2022-09-09T13:24:21;2.92;;;1.85;;
59016;SDS011;44800;55.600;38.134;2022-09-09T13:26:56;4.25;;;1.98;;
59016;SDS011;44800;55.600;38.134;2022-09-09T13:29:25;4.35;;;2.13;;
59016;SDS011;44800;55.600;38.134;2022-09-09T13:31:55;4.32;;;1.70;;
59016;SDS011;44800;55.600;38.134;2022-09-09T13:34:32;3.28;;;1.50;;
59016;SDS011;44800;55.600;38.134;2022-09-09T13:37:02;5.95;;;1.98;;
59016;SDS011;44800;55.600;38.134;2022-09-09T13:39:32;2.33;;;1.70;;
59016;SDS011;44800;55.600;38.134;2022-09-09T13:42:02;4.28;;;1.73;;
59016;SDS011;44800;55.600;38.134;2022-09-09T13:44:33;3.58;;;1.70;;
59016;SDS011;44800;55.600;38.134;2022-09-09T13:47:04;2.42;;;1.40;;
59016;SDS011;44800;55.600;38.134;2022-09-09T13:49:36;4.28;;;2.03;;
59016;SDS011;44800;55.600;38.134;2022-09-09T13:52:05;3.42;;;1.45;;
59016;SDS011;44800;55.600;38.134;2022-09-09T13:54:37;4.65;;;1.77;;
59016;SDS011;44800;55.600;38.134;2022-09-09T13:57:11;4.35;;;1.70;;
59016;SDS011;44800;55.600;38.134;2022-09-09T13:59:44;4.53;;;2.05;;
59016;SDS011;44800;55.600;38.134;2022-09-09T14:02:32;3.67;;;1.90;;
59016;SDS011;44800;55.600;38.134;2022-09-09T14:05:00;2.97;;;2.17;;
59016;SDS011;44800;55.600;38.134;2022-09-09T14:07:29;9.48;;;2.65;;
59016;SDS011;44800;55.600;38.134;2022-09-09T14:09:58;13.25;;;5.88;;
59016;SDS011;44800;55.600;38.134;2022-09-09T14:12:26;16.23;;;5.22;;
59016;SDS011;44800;55.600;38.134;2022-09-09T14:14:55;16.98;;;5.28;;
59016;SDS011;44800;55.600;38.134;2022-09-09T14:17:23;10.27;;;4.75;;
59016;SDS011;44800;55.600;38.134;2022-09-09T14:19:53;10.80;;;4.28;;
59016;SDS011;44800;55.600;38.134;2022-09-09T14:22:21;10.68;;;3.78;;
59016;SDS011;44800;55.600;38.134;2022-09-09T14:24:49;8.05;;;2.85;;
59016;SDS011;44800;55.600;38.134;2022-09-09T14:27:19;9.35;;;2.88;;
59016;SDS011;44800;55.600;38.134;2022-09-09T14:29:47;10.20;;;3.75;;
59016;SDS011;44800;55.600;38.134;2022-09-09T14:32:15;6.50;;;2.65;;
59016;SDS011;44800;55.600;38.134;2022-09-09T14:34:45;6.75;;;2.53;;
59016;SDS011;44800;55.600;38.134;2022-09-09T14:37:17;6.65;;;2.70;;
59016;SDS011;44800;55.600;38.134;2022-09-09T14:39:47;10.85;;;4.22;;
59016;SDS011;44800;55.600;38.134;2022-09-09T14:42:18;9.65;;;3.20;;
59016;SDS011;44800;55.600;38.134;2022-09-09T14:44:47;10.35;;;4.60;;
59016;SDS011;44800;55.600;38.134;2022-09-09T14:47:15;9.38;;;2.80;;
59016;SDS011;44800;55.600;38.134;2022-09-09T14:49:44;4.50;;;2.08;;
59016;SDS011;44800;55.600;38.134;2022-09-09T14:52:12;6.85;;;1.92;;
59016;SDS011;44800;55.600;38.134;2022-09-09T14:54:43;5.72;;;1.50;;
59016;SDS011;44800;55.600;38.134;2022-09-09T14:57:11;3.35;;;2.85;;
59016;SDS011;44800;55.600;38.134;2022-09-09T14:59:40;3.38;;;1.90;;
59016;SDS011;44800;55.600;38.134;2022-09-09T15:02:08;1.55;;;1.30;;
59016;SDS011;44800;55.600;38.134;2022-09-09T15:04:37;3.10;;;1.33;;
59016;SDS011;44800;55.600;38.134;2022-09-09T15:07:05;5.28;;;2.28;;
59016;SDS011;44800;55.600;38.134;2022-09-09T15:09:33;5.65;;;3.03;;
59016;SDS011;44800;55.600;38.134;2022-09-09T15:12:02;13.60;;;3.88;;
59016;SDS011;44800;55.600;38.134;2022-09-09T15:14:32;4.68;;;2.22;;
59016;SDS011;44800;55.600;38.134;2022-09-09T15:17:01;8.35;;;3.13;;